Mist Current Weather (METAR) For London Heathrow Airport

All times on the weather descriptions are local

Observed at 03:20 - (34 mins ago)

Mist

8°C

Mist
Clouds: Overcast at 400ft, Broken Clouds at 500ft
Wind: 170° at 06 knots
Visibility: 5,000m
QNH: 1016
Dew Point: 7°C
Runway in Use: Likely Runways 09L/R

Sunrise Today: 05:43
Sunset Today: 18:29

Forecast Weather (TAF) For London Heathrow Airport

Issued at 00:00 - (2 days 20 hrs ago)


Runway in Use: Likely Runways 27L/R

Forecast valid until 00:00 on Tuesday

METAR/TAF RAW METAR / TAF

EGLL 280320Z 17006KT 5000 BR OVC004 08/07 Q1016 TEMPO BKN005

Weather Widget

Put weather from any of our airports on your website with our weather widget.

Find Another Search

Airport Search


Please Wait Please Wait - Loading
Close
Close

Login

Username:

Password:

Remember Me:

Remember me on this computer

Forgotten your password? Get a reset password sent to your registered e-mail address

Close

User Private Message

Subject:

Message: